Terminal Aerodrome Forecast
Issued by NWS Goodland, KS

Home | Current Version | Previous Version | Text Only | Print | Product List | Glossary On
Versions: 1 2 3 4 5 6 7 8 9 10 11 12 13 14 15 16 17 18 19 20
000
FTUS43 KGLD 231517 AAE
TAFGLD
TAF AMD
KGLD 231517Z 2315/2412 VRB05KT P6SM SCT090 BKN120
      TEMPO 2315/2317 BKN010
     FM231700 16011KT P6SM SCT120
     FM240400 18008KT P6SM VCSH SCT120
     FM240700 30010KT P6SM FEW120=

USA.gov is the U.S. government's official web portal to all federal, state and local government web resources and services.